createdAt,value
2018-05-16T00:00:00.940Z,12.60
2018-05-16T00:03:03.947Z,12.60
2018-05-16T00:06:07.808Z,12.50
2018-05-16T00:09:10.879Z,12.50
2018-05-16T00:12:13.994Z,12.50
2018-05-16T00:15:17.074Z,12.50
2018-05-16T00:18:20.276Z,12.50
2018-05-16T00:21:23.365Z,12.50
2018-05-16T00:24:26.572Z,12.40
2018-05-16T00:27:29.746Z,12.40
2018-05-16T00:30:32.941Z,12.30
2018-05-16T00:33:36.106Z,12.20
2018-05-16T00:36:39.197Z,12.20
2018-05-16T00:39:42.731Z,12.20
2018-05-16T00:42:45.821Z,12.20
2018-05-16T00:45:48.902Z,12.10
2018-05-16T00:48:52.091Z,12.10
2018-05-16T00:51:55.822Z,12.10
2018-05-16T00:54:58.994Z,12.20
2018-05-16T00:58:02.066Z,12.20
2018-05-16T01:01:05.170Z,12.20
2018-05-16T01:04:08.245Z,12.20
2018-05-16T01:07:11.339Z,12.20
2018-05-16T01:10:14.410Z,12.20
2018-05-16T01:13:17.576Z,12.20
2018-05-16T01:16:21.406Z,12.20
2018-05-16T01:19:24.547Z,12.20
2018-05-16T01:22:28.538Z,12.20
2018-05-16T01:25:31.635Z,12.20
2018-05-16T01:28:34.722Z,12.20
2018-05-16T01:31:37.822Z,12.20
2018-05-16T01:34:40.898Z,12.20
2018-05-16T01:37:43.991Z,12.10
2018-05-16T01:40:47.144Z,12.10
2018-05-16T01:43:50.166Z,12.10
2018-05-16T01:46:53.836Z,12.10
2018-05-16T01:49:56.967Z,12.10
2018-05-16T01:53:00.038Z,12.10
2018-05-16T01:56:03.123Z,12.00
2018-05-16T01:59:06.192Z,12.00
2018-05-16T02:02:10.094Z,12.00
2018-05-16T02:05:13.296Z,12.00
2018-05-16T02:08:17.129Z,12.10
2018-05-16T02:11:20.234Z,12.10
2018-05-16T02:14:23.418Z,12.10
2018-05-16T02:17:26.493Z,12.00
2018-05-16T02:20:29.603Z,12.10
2018-05-16T02:23:32.676Z,12.10
2018-05-16T02:26:35.787Z,12.10
2018-05-16T02:29:38.955Z,12.10
2018-05-16T02:32:42.257Z,12.10
2018-05-16T02:35:45.412Z,12.00
2018-05-16T02:38:48.479Z,12.10
2018-05-16T02:41:52.328Z,12.00
2018-05-16T02:44:55.415Z,12.00
2018-05-16T02:47:58.541Z,12.00
2018-05-16T02:51:01.665Z,12.00
2018-05-16T02:54:04.819Z,12.00
2018-05-16T02:57:08.019Z,11.90
2018-05-16T03:00:11.360Z,11.90
2018-05-16T03:03:14.678Z,11.90
2018-05-16T03:06:18.715Z,11.90
2018-05-16T03:09:21.911Z,11.90
2018-05-16T03:12:24.995Z,11.90
2018-05-16T03:15:28.088Z,11.90
2018-05-16T03:18:31.163Z,11.90
2018-05-16T03:21:34.254Z,12.00
2018-05-16T03:24:37.334Z,12.00
2018-05-16T03:27:40.446Z,12.00
2018-05-16T03:30:43.532Z,12.00
2018-05-16T03:33:46.676Z,12.10
2018-05-16T03:36:49.728Z,12.10
2018-05-16T03:39:52.912Z,12.00
2018-05-16T03:42:55.982Z,12.10
2018-05-16T03:45:59.079Z,12.10
2018-05-16T03:49:02.172Z,12.10
2018-05-16T03:52:05.270Z,12.10
2018-05-16T03:55:08.347Z,12.10
2018-05-16T03:58:23.426Z,12.20
2018-05-16T04:01:38.499Z,12.20
2018-05-16T04:04:41.645Z,12.30
2018-05-16T04:07:44.883Z,12.30
2018-05-16T04:10:47.974Z,12.40
2018-05-16T04:13:51.041Z,12.50
2018-05-16T04:16:54.159Z,12.60
2018-05-16T04:19:57.235Z,12.60
2018-05-16T04:23:00.438Z,12.70
2018-05-16T04:26:03.523Z,12.70
2018-05-16T04:29:06.626Z,12.70
2018-05-16T04:32:09.703Z,12.80
2018-05-16T04:35:13.591Z,12.90
2018-05-16T04:38:16.708Z,13.00
2018-05-16T04:41:19.803Z,13.10
2018-05-16T04:44:23.091Z,13.10
2018-05-16T04:47:27.099Z,13.30
2018-05-16T04:50:30.174Z,13.20
2018-05-16T04:53:33.279Z,13.40
2018-05-16T04:56:36.371Z,13.50
2018-05-16T04:59:39.511Z,13.40
2018-05-16T05:02:42.657Z,13.40
2018-05-16T05:05:45.748Z,13.40
2018-05-16T05:08:48.838Z,13.40
2018-05-16T05:11:51.922Z,13.50
2018-05-16T05:14:55.009Z,13.90
2018-05-16T05:17:58.106Z,14.30
2018-05-16T05:21:01.213Z,14.40
2018-05-16T05:24:04.375Z,14.60
2018-05-16T05:27:07.475Z,14.80
2018-05-16T05:30:10.609Z,14.60
2018-05-16T05:33:13.666Z,14.70
2018-05-16T05:36:17.558Z,14.90
2018-05-16T05:39:20.629Z,14.80
2018-05-16T05:42:23.726Z,15.00
2018-05-16T05:45:26.827Z,14.90
2018-05-16T05:48:29.968Z,14.90
2018-05-16T05:51:33.112Z,15.10
2018-05-16T05:54:36.299Z,15.20
2018-05-16T05:57:39.371Z,15.10
2018-05-16T06:00:42.553Z,15.40
2018-05-16T06:03:46.384Z,17.20
2018-05-16T06:06:49.476Z,17.20
2018-05-16T06:09:52.619Z,16.70
2018-05-16T06:12:55.722Z,16.20
2018-05-16T06:15:58.901Z,17.10
2018-05-16T06:19:01.972Z,17.70
2018-05-16T06:22:05.099Z,17.40
2018-05-16T06:25:08.349Z,16.80
2018-05-16T06:28:11.431Z,16.60
2018-05-16T06:31:14.711Z,16.00
2018-05-16T06:34:18.650Z,15.70
2018-05-16T06:37:21.757Z,15.40
2018-05-16T06:40:25.621Z,15.20
2018-05-16T06:43:28.862Z,15.20
2018-05-16T06:46:32.002Z,15.50
2018-05-16T06:49:35.857Z,15.70
2018-05-16T06:52:39.002Z,15.80
2018-05-16T06:55:42.241Z,15.90
2018-05-16T06:58:45.433Z,16.10
2018-05-16T07:01:48.994Z,16.20
2018-05-16T07:04:52.226Z,16.60
2018-05-16T07:07:55.986Z,16.80
2018-05-16T07:10:59.063Z,17.60
2018-05-16T07:14:02.176Z,17.70
2018-05-16T07:17:05.255Z,18.60
2018-05-16T07:20:09.163Z,18.60
2018-05-16T07:23:12.243Z,17.90
2018-05-16T07:26:15.391Z,17.40
2018-05-16T07:29:18.442Z,17.70
2018-05-16T07:32:21.605Z,17.90
2018-05-16T07:35:24.614Z,18.00
2018-05-16T07:38:27.709Z,18.40
2018-05-16T07:41:30.849Z,19.00
2018-05-16T07:44:34.813Z,21.00
2018-05-16T07:47:38.094Z,21.00
2018-05-16T07:50:41.707Z,21.30
2018-05-16T07:53:44.851Z,21.20
2018-05-16T07:56:48.691Z,19.90
2018-05-16T07:59:51.837Z,19.90
2018-05-16T08:02:54.917Z,19.60
2018-05-16T08:05:58.755Z,20.40
2018-05-16T08:09:01.860Z,20.40
2018-05-16T08:12:04.934Z,20.80
2018-05-16T08:15:08.050Z,20.30
2018-05-16T08:18:11.122Z,20.00
2018-05-16T08:21:14.284Z,19.80
2018-05-16T08:24:18.046Z,19.60
2018-05-16T08:27:21.135Z,19.20
2018-05-16T08:30:24.208Z,19.00
2018-05-16T08:33:27.411Z,19.30
2018-05-16T08:36:30.518Z,19.90
2018-05-16T08:39:33.694Z,20.00
2018-05-16T08:42:37.398Z,19.80
2018-05-16T08:45:40.491Z,19.80
2018-05-16T08:48:43.643Z,20.10
2018-05-16T08:51:46.731Z,20.20
2018-05-16T08:54:49.909Z,20.50
2018-05-16T08:57:53.055Z,20.40
2018-05-16T09:00:56.191Z,20.10
2018-05-16T09:03:59.260Z,19.90
2018-05-16T09:07:02.678Z,20.10
2018-05-16T09:10:06.536Z,20.00
2018-05-16T09:13:09.631Z,20.00
2018-05-16T09:16:12.970Z,19.70
2018-05-16T09:19:16.070Z,19.90
2018-05-16T09:22:19.406Z,19.90
2018-05-16T09:25:22.484Z,20.20
2018-05-16T09:28:25.575Z,20.00
2018-05-16T09:31:28.651Z,20.00
2018-05-16T09:34:31.777Z,19.90
2018-05-16T09:37:34.846Z,19.90
2018-05-16T09:40:37.939Z,20.10
2018-05-16T09:43:41.010Z,20.10
2018-05-16T09:46:44.175Z,19.90
2018-05-16T09:49:47.226Z,20.00
2018-05-16T09:52:51.033Z,19.90
2018-05-16T09:55:54.100Z,20.30
2018-05-16T09:58:57.207Z,20.70
2018-05-16T10:02:00.267Z,20.90
2018-05-16T10:05:03.369Z,21.00
2018-05-16T10:08:06.521Z,21.10
2018-05-16T10:11:11.110Z,21.30
2018-05-16T10:14:15.722Z,21.30
2018-05-16T10:17:18.923Z,21.30
2018-05-16T10:20:22.166Z,21.40
2018-05-16T10:23:25.288Z,21.60
2018-05-16T10:26:28.336Z,22.00
2018-05-16T10:29:32.182Z,21.60
2018-05-16T10:32:35.255Z,21.60
2018-05-16T10:35:38.375Z,21.40
2018-05-16T10:38:41.468Z,21.40
2018-05-16T10:41:44.562Z,21.10
2018-05-16T10:44:47.828Z,20.90
2018-05-16T10:47:51.298Z,20.80
2018-05-16T10:50:54.386Z,20.70
2018-05-16T10:53:57.578Z,20.80
2018-05-16T10:57:00.614Z,20.90
2018-05-16T11:00:03.702Z,20.90
2018-05-16T11:03:06.798Z,21.20
2018-05-16T11:06:09.890Z,21.30
2018-05-16T11:09:12.963Z,21.70
2018-05-16T11:12:16.117Z,21.80
2018-05-16T11:15:19.260Z,22.00
2018-05-16T11:18:22.359Z,21.80
2018-05-16T11:21:25.496Z,21.40
2018-05-16T11:24:28.735Z,21.70
2018-05-16T11:27:31.828Z,21.60
2018-05-16T11:30:35.864Z,21.70
2018-05-16T11:33:39.612Z,22.20
2018-05-16T11:36:42.840Z,22.20
2018-05-16T11:39:47.455Z,22.00
2018-05-16T11:42:50.553Z,22.00
2018-05-16T11:45:53.688Z,21.80
2018-05-16T11:48:57.560Z,22.00
2018-05-16T11:52:00.635Z,22.00
2018-05-16T11:55:03.720Z,22.20
2018-05-16T11:58:06.833Z,22.10
2018-05-16T12:01:09.927Z,22.10
2018-05-16T12:04:13.090Z,21.90
2018-05-16T12:07:16.276Z,22.00
2018-05-16T12:10:19.484Z,21.90
2018-05-16T12:13:22.591Z,21.70
2018-05-16T12:16:25.659Z,22.00
2018-05-16T12:19:28.723Z,22.00
2018-05-16T12:22:31.843Z,22.10
2018-05-16T12:25:34.925Z,22.00
2018-05-16T12:28:37.988Z,22.50
2018-05-16T12:31:41.095Z,22.40
2018-05-16T12:34:44.194Z,22.60
2018-05-16T12:37:47.283Z,22.50
2018-05-16T12:40:50.351Z,22.50
2018-05-16T12:43:53.476Z,22.40
2018-05-16T12:46:56.555Z,22.20
2018-05-16T12:49:59.638Z,22.10
2018-05-16T12:53:02.754Z,22.30
2018-05-16T12:56:05.931Z,22.50
2018-05-16T12:59:09.018Z,22.70
2018-05-16T13:02:12.260Z,22.60
2018-05-16T13:05:15.351Z,22.30
2018-05-16T13:08:19.010Z,22.30
2018-05-16T13:11:22.090Z,22.30
2018-05-16T13:14:25.291Z,22.30
2018-05-16T13:17:28.355Z,22.10
2018-05-16T13:20:31.438Z,22.30
2018-05-16T13:23:34.512Z,22.30
2018-05-16T13:26:37.611Z,22.10
2018-05-16T13:29:40.687Z,21.90
2018-05-16T13:32:44.649Z,22.00
2018-05-16T13:35:47.718Z,22.00
2018-05-16T13:38:50.826Z,22.30
2018-05-16T13:41:53.903Z,22.60
2018-05-16T13:44:57.017Z,22.60
2018-05-16T13:48:00.148Z,22.30
2018-05-16T13:51:03.287Z,22.50
2018-05-16T13:54:06.355Z,22.60
2018-05-16T13:57:09.471Z,22.90
2018-05-16T14:00:12.997Z,23.00
2018-05-16T14:03:16.066Z,22.80
2018-05-16T14:06:19.152Z,22.60
2018-05-16T14:09:22.238Z,22.80
2018-05-16T14:12:25.326Z,23.00
2018-05-16T14:15:28.517Z,22.90
2018-05-16T14:18:31.816Z,22.40
2018-05-16T14:21:34.999Z,22.00
2018-05-16T14:24:38.091Z,21.80
2018-05-16T14:27:41.333Z,21.80
2018-05-16T14:30:44.402Z,22.00
2018-05-16T14:33:47.512Z,22.20
2018-05-16T14:36:50.650Z,22.30
2018-05-16T14:39:53.738Z,22.20
2018-05-16T14:42:56.845Z,21.90
2018-05-16T14:45:59.911Z,21.60
2018-05-16T14:49:03.064Z,21.50
2018-05-16T14:52:06.117Z,21.70
2018-05-16T14:55:09.257Z,21.80
2018-05-16T14:58:12.400Z,21.80
2018-05-16T15:01:15.454Z,21.70
2018-05-16T15:04:18.539Z,21.40
2018-05-16T15:07:21.707Z,21.40
2018-05-16T15:10:24.771Z,21.10
2018-05-16T15:13:29.371Z,21.40
2018-05-16T15:16:32.463Z,21.30
2018-05-16T15:19:35.601Z,21.10
2018-05-16T15:22:38.675Z,21.00
2018-05-16T15:25:41.835Z,21.00
2018-05-16T15:28:44.919Z,20.90
2018-05-16T15:31:48.064Z,20.70
2018-05-16T15:34:51.926Z,20.90
2018-05-16T15:37:55.060Z,20.90
2018-05-16T15:40:58.251Z,21.00
2018-05-16T15:44:01.300Z,21.00
2018-05-16T15:47:04.388Z,20.60
2018-05-16T15:50:07.522Z,20.60
2018-05-16T15:53:10.579Z,20.70
2018-05-16T15:56:13.648Z,20.80
2018-05-16T15:59:17.608Z,20.70
2018-05-16T16:02:20.701Z,20.60
2018-05-16T16:05:23.767Z,20.30
2018-05-16T16:08:26.830Z,20.30
2018-05-16T16:11:30.027Z,20.30
2018-05-16T16:14:33.104Z,20.30
2018-05-16T16:17:36.211Z,20.20
2018-05-16T16:20:39.270Z,20.20
2018-05-16T16:23:42.376Z,20.30
2018-05-16T16:26:45.520Z,20.40
2018-05-16T16:29:48.668Z,20.50
2018-05-16T16:32:51.730Z,20.50
2018-05-16T16:35:55.078Z,20.50
2018-05-16T16:38:59.293Z,20.70
2018-05-16T16:42:03.243Z,20.80
2018-05-16T16:45:07.053Z,20.60
2018-05-16T16:48:10.159Z,20.70
2018-05-16T16:51:13.308Z,20.60
2018-05-16T16:54:16.375Z,20.50
2018-05-16T16:57:19.607Z,20.50
2018-05-16T17:00:22.921Z,20.40
2018-05-16T17:03:26.793Z,20.60
2018-05-16T17:06:29.990Z,20.50
2018-05-16T17:09:33.145Z,20.40
2018-05-16T17:12:36.238Z,20.30
2018-05-16T17:15:39.515Z,20.30
2018-05-16T17:18:42.807Z,20.40
2018-05-16T17:21:45.887Z,20.30
2018-05-16T17:24:48.978Z,20.20
2018-05-16T17:27:52.127Z,20.10
2018-05-16T17:30:55.215Z,20.20
2018-05-16T17:33:58.361Z,20.20
2018-05-16T17:37:01.444Z,20.20
2018-05-16T17:40:04.588Z,20.00
2018-05-16T17:43:07.655Z,19.90
2018-05-16T17:46:10.813Z,19.90
2018-05-16T17:49:13.808Z,19.80
2018-05-16T17:52:16.875Z,19.80
2018-05-16T17:55:19.955Z,19.90
2018-05-16T17:58:23.084Z,19.80
2018-05-16T18:01:26.270Z,19.80
2018-05-16T18:04:29.339Z,19.70
2018-05-16T18:07:32.431Z,19.70
2018-05-16T18:10:35.511Z,19.70
2018-05-16T18:13:59.412Z,19.80
2018-05-16T18:17:14.381Z,19.70
2018-05-16T18:20:17.575Z,19.70
2018-05-16T18:23:20.668Z,19.60
2018-05-16T18:26:23.751Z,19.60
2018-05-16T18:29:26.843Z,19.50
2018-05-16T18:32:30.750Z,19.60
2018-05-16T18:35:34.165Z,19.60
2018-05-16T18:38:37.254Z,19.60
2018-05-16T18:41:40.481Z,19.60
2018-05-16T18:44:43.541Z,19.60
2018-05-16T18:47:46.668Z,19.50
2018-05-16T18:50:49.811Z,19.50
2018-05-16T18:57:19.938Z,19.40
2018-05-16T19:00:23.186Z,19.40
2018-05-16T19:03:26.546Z,19.40
2018-05-16T19:06:31.208Z,19.30
2018-05-16T19:09:34.273Z,19.30
2018-05-16T19:12:37.615Z,19.30
2018-05-16T19:15:40.755Z,19.30
2018-05-16T19:18:43.927Z,19.30
2018-05-16T19:21:47.018Z,19.30
2018-05-16T19:24:50.779Z,19.30
2018-05-16T19:27:53.840Z,19.20
2018-05-16T19:30:57.732Z,19.10
2018-05-16T19:34:00.810Z,19.10
2018-05-16T19:37:03.950Z,19.10
2018-05-16T19:40:07.174Z,19.00
2018-05-16T19:43:10.333Z,18.90
2018-05-16T19:46:13.423Z,18.90
2018-05-16T19:49:16.514Z,19.00
2018-05-16T19:52:19.591Z,19.00
2018-05-16T19:55:23.436Z,18.90
2018-05-16T19:58:26.569Z,18.90
2018-05-16T20:01:29.632Z,18.80
2018-05-16T20:04:33.089Z,18.80
2018-05-16T20:07:36.126Z,18.80
2018-05-16T20:10:39.222Z,18.80
2018-05-16T20:13:42.290Z,18.70
2018-05-16T20:16:45.398Z,18.60
2018-05-16T20:19:48.486Z,18.50
2018-05-16T20:22:51.591Z,18.50
2018-05-16T20:25:54.823Z,18.40
2018-05-16T20:28:58.083Z,18.40
2018-05-16T20:32:01.147Z,18.40
2018-05-16T20:35:04.242Z,18.40
2018-05-16T20:38:07.314Z,18.30
2018-05-16T20:41:10.422Z,18.30
2018-05-16T20:44:13.523Z,18.30
2018-05-16T20:47:16.610Z,18.20
2018-05-16T20:50:20.071Z,18.20
2018-05-16T20:53:23.225Z,18.20
2018-05-16T20:56:26.379Z,18.10
2018-05-16T20:59:30.283Z,18.00
2018-05-16T21:02:33.430Z,18.00
2018-05-16T21:05:36.570Z,18.00
2018-05-16T21:08:39.649Z,18.00
2018-05-16T21:11:42.760Z,17.90
2018-05-16T21:14:45.842Z,18.00
2018-05-16T21:17:48.938Z,17.90
2018-05-16T21:20:52.072Z,17.90
2018-05-16T21:23:55.156Z,17.70
2018-05-16T21:26:59.026Z,17.70
2018-05-16T21:30:02.119Z,17.70
2018-05-16T21:33:05.203Z,17.70
2018-05-16T21:36:08.294Z,17.70
2018-05-16T21:39:11.370Z,17.70
2018-05-16T21:42:14.473Z,17.80
2018-05-16T21:45:17.544Z,17.80
2018-05-16T21:48:20.651Z,17.80
2018-05-16T21:51:23.724Z,17.80
2018-05-16T21:54:26.835Z,17.70
2018-05-16T21:57:29.907Z,17.70
2018-05-16T22:00:33.732Z,17.70
2018-05-16T22:03:36.803Z,17.70
2018-05-16T22:06:39.903Z,17.60
2018-05-16T22:09:42.974Z,17.60
2018-05-16T22:12:46.085Z,17.50
2018-05-16T22:15:49.158Z,17.40
2018-05-16T22:18:52.343Z,17.40
2018-05-16T22:21:55.415Z,17.30
2018-05-16T22:24:58.506Z,17.30
2018-05-16T22:28:01.579Z,17.30
2018-05-16T22:31:11.050Z,17.30
2018-05-16T22:34:19.767Z,17.20
2018-05-16T22:37:28.649Z,17.10
2018-05-16T22:40:37.406Z,17.10
2018-05-16T22:43:46.471Z,17.10
2018-05-16T22:46:49.558Z,17.00
2018-05-16T22:49:52.647Z,17.00
2018-05-16T22:52:56.159Z,16.90
2018-05-16T22:55:59.252Z,16.80
2018-05-16T22:59:02.387Z,16.70
2018-05-16T23:02:06.225Z,16.60
2018-05-16T23:05:09.302Z,16.60
2018-05-16T23:08:12.469Z,16.50
2018-05-16T23:11:15.506Z,16.50
2018-05-16T23:14:18.595Z,16.40
2018-05-16T23:17:21.671Z,16.40
2018-05-16T23:20:24.775Z,16.30
2018-05-16T23:23:27.873Z,16.30
2018-05-16T23:26:31.108Z,16.30
2018-05-16T23:29:34.356Z,16.20
2018-05-16T23:32:37.444Z,16.20
2018-05-16T23:35:40.529Z,16.40
2018-05-16T23:38:43.619Z,16.40
2018-05-16T23:41:46.687Z,16.40
2018-05-16T23:44:49.802Z,16.40
2018-05-16T23:47:52.862Z,16.40
2018-05-16T23:50:56.575Z,16.40
2018-05-16T23:53:59.686Z,16.30
2018-05-16T23:57:03.644Z,16.20
